Time,TemperatureF,DewpointF,PressureIn,WindDirection,WindDirectionDegrees,WindSpeedMPH,WindSpeedGustMPH,Humidity,HourlyPrecipIn,Conditions,Clouds,dailyrainin,SoftwareType,DateUTC
2013-01-17 00:00:00,61.9,60.2,29.92,NW,321,0.0,0.0,94,0.02,CLR,,0.10,WeatherDisplay:10.37,2013-01-17 05:00:00,
2013-01-17 00:01:00,61.9,60.2,29.92,West,266,0.0,0.0,94,0.00,RA,,0.00,WeatherDisplay:10.37,2013-01-17 05:01:00,
2013-01-17 00:02:00,61.8,60.1,29.92,NW,313,0.0,0.0,94,0.02,RA,,0.00,WeatherDisplay:10.37,2013-01-17 05:02:00,
2013-01-17 00:04:00,61.8,60.1,29.92,NW,313,0.0,0.0,94,0.02,RA,,0.00,WeatherDisplay:10.37,2013-01-17 05:04:00,
2013-01-17 00:09:00,61.8,60.1,29.92,SW,219,0.0,0.0,94,0.01,RA,,0.00,WeatherDisplay:10.37,2013-01-17 05:09:00,
2013-01-17 00:14:00,61.9,60.2,29.93,SW,228,2.3,0.0,94,0.01,CLR,,0.00,WeatherDisplay:10.37,2013-01-17 05:14:00,
2013-01-17 00:19:00,61.8,60.1,29.92,WNW,294,0.0,0.0,94,0.02,RA,,0.01,WeatherDisplay:10.37,2013-01-17 05:19:00,
2013-01-17 00:24:00,61.6,59.9,29.92,WNW,294,0.0,0.0,94,0.02,RA,,0.01,WeatherDisplay:10.37,2013-01-17 05:24:00,
2013-01-17 00:29:00,61.5,59.8,29.93,WNW,294,0.0,0.0,94,0.03,RA,,0.02,WeatherDisplay:10.37,2013-01-17 05:29:00,
2013-01-17 00:34:00,61.5,59.8,29.93,WNW,295,0.0,0.0,94,0.05,RA,,0.04,WeatherDisplay:10.37,2013-01-17 05:34:00,
2013-01-17 00:39:00,61.5,59.8,29.93,WNW,295,0.0,0.0,94,0.09,RA,,0.09,WeatherDisplay:10.37,2013-01-17 05:39:00,
2013-01-17 00:44:00,61.5,59.8,29.93,WNW,295,0.0,0.0,94,0.01,RA,,0.12,WeatherDisplay:10.37,2013-01-17 05:44:00,
2013-01-17 00:49:00,61.6,59.9,29.93,WNW,294,0.0,0.0,94,0.02,RA,,0.12,WeatherDisplay:10.37,2013-01-17 05:49:00,
2013-01-17 00:54:00,61.6,59.9,29.92,North,360,0.0,0.0,94,0.02,RA,,0.12,WeatherDisplay:10.37,2013-01-17 05:54:00,
2013-01-17 00:59:00,61.6,59.9,29.92,NE,44,0.0,0.0,94,0.02,CLR,,0.12,WeatherDisplay:10.37,2013-01-17 05:59:00,
2013-01-17 01:04:00,61.7,60.0,29.92,NE,44,0.0,0.0,94,0.12,CLR,,0.12,WeatherDisplay:10.37,2013-01-17 06:04:00,
2013-01-17 01:09:00,61.7,60.0,29.92,NE,49,0.0,0.0,94,0.12,CLR,,0.12,WeatherDisplay:10.37,2013-01-17 06:09:00,
2013-01-17 01:14:00,61.8,60.1,29.92,North,360,0.0,0.0,94,0.12,CLR,,0.12,WeatherDisplay:10.37,2013-01-17 06:14:00,
2013-01-17 01:19:00,61.8,60.1,29.91,North,360,0.0,0.0,94,0.12,RA,,0.13,WeatherDisplay:10.37,2013-01-17 06:19:00,
2013-01-17 01:24:00,61.8,60.1,29.91,North,360,0.0,0.0,94,0.12,RA,,0.13,WeatherDisplay:10.37,2013-01-17 06:24:00,
2013-01-17 01:29:00,61.8,60.1,29.91,NE,46,0.0,0.0,94,0.11,,,0.13,WeatherDisplay:10.37,2013-01-17 06:29:00,
2013-01-17 01:34:00,61.9,60.2,29.91,NE,46,0.0,0.0,94,0.09,CLR,,0.13,WeatherDisplay:10.37,2013-01-17 06:34:00,
2013-01-17 01:39:00,61.9,60.2,29.91,NE,46,0.0,0.0,94,0.05,CLR,,0.13,WeatherDisplay:10.37,2013-01-17 06:39:00,
2013-01-17 01:44:00,62.0,60.3,29.91,NE,46,0.0,0.0,94,0.02,CLR,,0.13,WeatherDisplay:10.37,2013-01-17 06:44:00,
2013-01-17 01:49:00,62.0,60.3,29.92,NE,46,0.0,0.0,94,0.01,CLR,,0.13,WeatherDisplay:10.37,2013-01-17 06:49:00,
2013-01-17 01:54:00,62.1,60.7,29.91,NE,46,0.0,0.0,95,0.01,CLR,,0.13,WeatherDisplay:10.37,2013-01-17 06:54:00,
2013-01-17 01:59:00,62.1,60.7,29.92,NE,45,0.0,0.0,95,0.01,CLR,,0.13,WeatherDisplay:10.37,2013-01-17 06:59:00,
2013-01-17 02:04:00,62.2,60.8,29.91,NE,46,0.0,0.0,95,0.01,CLR,,0.13,WeatherDisplay:10.37,2013-01-17 07:04:00,
2013-01-17 02:09:00,62.1,60.7,29.91,NE,46,0.0,0.0,95,0.01,CLR,,0.13,WeatherDisplay:10.37,2013-01-17 07:09:00,
2013-01-17 02:14:00,62.2,60.8,29.91,NE,46,0.0,0.0,95,0.01,CLR,,0.13,WeatherDisplay:10.37,2013-01-17 07:14:00,
2013-01-17 02:19:00,62.3,60.8,29.91,NE,46,0.0,0.0,95,0.00,CLR,,0.13,WeatherDisplay:10.37,2013-01-17 07:19:00,
2013-01-17 02:24:00,62.2,60.8,29.91,NE,46,0.0,0.0,95,0.00,CLR,,0.13,WeatherDisplay:10.37,2013-01-17 07:24:00,
2013-01-17 02:29:00,62.2,60.8,29.91,NE,46,0.0,0.0,95,0.00,CLR,,0.13,WeatherDisplay:10.37,2013-01-17 07:29:00,
2013-01-17 02:34:00,62.3,60.8,29.91,NE,46,0.0,0.0,95,0.00,CLR,,0.13,WeatherDisplay:10.37,2013-01-17 07:34:00,
2013-01-17 02:39:00,62.3,60.8,29.91,NE,46,0.0,0.0,95,0.00,CLR,,0.13,WeatherDisplay:10.37,2013-01-17 07:39:00,
2013-01-17 02:44:00,62.4,60.9,29.90,NE,46,0.0,0.0,95,0.00,CLR,,0.13,WeatherDisplay:10.37,2013-01-17 07:44:00,
2013-01-17 02:49:00,62.5,61.0,29.90,NE,47,0.0,0.0,95,0.00,CLR,,0.13,WeatherDisplay:10.37,2013-01-17 07:49:00,
2013-01-17 02:54:00,62.5,61.0,29.90,NE,47,0.0,0.0,95,0.00,CLR,,0.13,WeatherDisplay:10.37,2013-01-17 07:54:00,
2013-01-17 02:59:00,62.6,61.1,29.90,NE,46,0.0,0.0,95,0.00,CLR,,0.13,WeatherDisplay:10.37,2013-01-17 07:59:00,
2013-01-17 03:04:00,62.7,61.2,29.91,NE,47,0.0,0.0,95,0.00,CLR,,0.13,WeatherDisplay:10.37,2013-01-17 08:04:00,
2013-01-17 03:09:00,62.7,61.2,29.90,NE,47,0.0,0.0,95,0.00,CLR,,0.13,WeatherDisplay:10.37,2013-01-17 08:09:00,
2013-01-17 03:14:00,62.8,61.3,29.90,NE,46,0.0,0.0,95,0.00,CLR,,0.13,WeatherDisplay:10.37,2013-01-17 08:14:00,
2013-01-17 03:19:00,63.0,61.5,29.90,NE,46,0.0,0.0,95,0.00,CLR,,0.13,WeatherDisplay:10.37,2013-01-17 08:19:00,
2013-01-17 03:24:00,63.1,61.6,29.90,NE,46,0.0,0.0,95,0.00,CLR,,0.13,WeatherDisplay:10.37,2013-01-17 08:24:00,
2013-01-17 03:29:00,63.1,61.6,29.90,NE,46,0.0,0.0,95,0.00,CLR,,0.13,WeatherDisplay:10.37,2013-01-17 08:29:00,
2013-01-17 03:34:00,63.1,61.6,29.89,NE,46,0.0,0.0,95,0.00,CLR,,0.13,WeatherDisplay:10.37,2013-01-17 08:34:00,
2013-01-17 03:39:00,63.1,61.6,29.89,NE,46,0.0,0.0,95,0.00,CLR,,0.13,WeatherDisplay:10.37,2013-01-17 08:39:00,
2013-01-17 03:44:00,63.2,61.7,29.89,NE,46,0.0,0.0,95,0.00,CLR,,0.13,WeatherDisplay:10.37,2013-01-17 08:44:00,
2013-01-17 03:49:00,63.3,61.8,29.89,NE,46,0.0,0.0,95,0.00,CLR,,0.13,WeatherDisplay:10.37,2013-01-17 08:49:00,
2013-01-17 03:54:00,63.3,61.8,29.89,NE,46,0.0,0.0,95,0.00,CLR,,0.13,WeatherDisplay:10.37,2013-01-17 08:54:00,
2013-01-17 03:59:00,63.3,61.8,29.89,NE,47,0.0,0.0,95,0.00,CLR,,0.13,WeatherDisplay:10.37,2013-01-17 08:59:00,
2013-01-17 04:04:00,63.3,61.8,29.89,NE,46,0.0,0.0,95,0.00,CLR,,0.13,WeatherDisplay:10.37,2013-01-17 09:04:00,
2013-01-17 04:09:00,63.4,61.9,29.89,NE,46,0.0,0.0,95,0.00,CLR,,0.13,WeatherDisplay:10.37,2013-01-17 09:09:00,
2013-01-17 04:14:00,63.4,61.9,29.89,NE,46,0.0,0.0,95,0.00,CLR,,0.13,WeatherDisplay:10.37,2013-01-17 09:14:00,
2013-01-17 04:19:00,63.4,61.9,29.88,NE,46,0.0,0.0,95,0.00,CLR,,0.13,WeatherDisplay:10.37,2013-01-17 09:19:00,
2013-01-17 04:24:00,63.4,61.9,29.88,North,360,0.0,0.0,95,0.00,CLR,,0.13,WeatherDisplay:10.37,2013-01-17 09:24:00,
2013-01-17 04:30:00,63.5,62.0,29.87,North,360,0.0,0.0,95,0.00,CLR,,0.13,WeatherDisplay:10.37,2013-01-17 09:30:00,
2013-01-17 04:35:00,63.6,62.1,29.87,North,360,0.0,0.0,95,0.00,CLR,,0.13,WeatherDisplay:10.37,2013-01-17 09:35:00,
2013-01-17 04:40:00,63.6,62.1,29.88,ESE,114,0.0,0.0,95,0.00,CLR,,0.13,WeatherDisplay:10.37,2013-01-17 09:40:00,
2013-01-17 04:45:00,63.7,62.2,29.88,ESE,114,0.0,0.0,95,0.00,CLR,,0.13,WeatherDisplay:10.37,2013-01-17 09:45:00,
2013-01-17 04:50:00,63.7,62.2,29.88,ESE,114,0.0,0.0,95,0.00,CLR,,0.13,WeatherDisplay:10.37,2013-01-17 09:50:00,
2013-01-17 04:55:00,63.8,62.3,29.87,ESE,113,0.0,0.0,95,0.00,CLR,,0.13,WeatherDisplay:10.37,2013-01-17 09:55:00,
2013-01-17 05:00:00,63.9,62.4,29.87,ESE,114,0.0,0.0,95,0.00,CLR,,0.13,WeatherDisplay:10.37,2013-01-17 10:00:00,
2013-01-17 05:05:00,64.0,62.5,29.87,ESE,111,0.0,0.0,95,0.00,CLR,,0.13,WeatherDisplay:10.37,2013-01-17 10:05:00,
2013-01-17 05:10:00,64.1,62.6,29.87,ESE,105,0.0,0.0,95,0.00,CLR,,0.13,WeatherDisplay:10.37,2013-01-17 10:10:00,
2013-01-17 05:15:00,64.1,62.6,29.87,ESE,113,0.0,0.0,95,0.00,CLR,,0.13,WeatherDisplay:10.37,2013-01-17 10:15:00,
2013-01-17 05:20:00,64.2,62.7,29.87,North,360,3.5,3.5,95,0.00,CLR,,0.13,WeatherDisplay:10.37,2013-01-17 10:20:00,
2013-01-17 05:25:00,64.2,62.7,29.88,SE,132,0.0,0.0,95,0.00,CLR,,0.13,WeatherDisplay:10.37,2013-01-17 10:25:00,
2013-01-17 05:30:00,64.2,62.7,29.87,North,360,0.0,0.0,95,0.00,CLR,,0.13,WeatherDisplay:10.37,2013-01-17 10:30:00,
2013-01-17 05:35:00,64.3,62.8,29.87,SE,132,0.0,0.0,95,0.00,CLR,,0.13,WeatherDisplay:10.37,2013-01-17 10:35:00,
2013-01-17 05:40:00,64.3,62.8,29.87,SE,132,0.0,0.0,95,0.00,CLR,,0.13,WeatherDisplay:10.37,2013-01-17 10:40:00,
2013-01-17 05:45:00,64.3,62.8,29.86,SE,132,0.0,0.0,95,0.00,CLR,,0.13,WeatherDisplay:10.37,2013-01-17 10:45:00,
2013-01-17 05:50:00,64.3,62.8,29.86,SE,132,0.0,0.0,95,0.00,CLR,,0.13,WeatherDisplay:10.37,2013-01-17 10:50:00,
2013-01-17 05:55:00,64.2,62.7,29.86,SE,132,0.0,0.0,95,0.00,CLR,,0.13,WeatherDisplay:10.37,2013-01-17 10:55:00,
2013-01-17 06:00:00,64.2,62.7,29.86,SE,130,0.0,0.0,95,0.00,CLR,,0.13,WeatherDisplay:10.37,2013-01-17 11:00:00,
2013-01-17 06:05:00,64.2,62.7,29.86,SE,131,0.0,0.0,95,0.00,CLR,,0.13,WeatherDisplay:10.37,2013-01-17 11:05:00,
2013-01-17 06:10:00,64.1,62.6,29.86,SE,132,0.0,0.0,95,0.00,CLR,,0.13,WeatherDisplay:10.37,2013-01-17 11:10:00,
2013-01-17 06:15:00,64.1,62.6,29.86,SE,131,0.0,0.0,95,0.00,CLR,,0.13,WeatherDisplay:10.37,2013-01-17 11:15:00,
2013-01-17 06:20:00,64.2,62.7,29.87,SE,131,0.0,0.0,95,0.01,RA,,0.14,WeatherDisplay:10.37,2013-01-17 11:20:00,
2013-01-17 06:25:00,64.2,62.7,29.87,SE,130,0.0,0.0,95,0.01,RA,,0.14,WeatherDisplay:10.37,2013-01-17 11:25:00,
2013-01-17 06:30:00,64.2,62.7,29.87,SE,131,0.0,0.0,95,0.01,CLR,,0.14,WeatherDisplay:10.37,2013-01-17 11:30:00,
2013-01-17 06:35:00,64.2,62.7,29.87,SE,128,0.0,0.1,95,0.01,CLR,,0.14,WeatherDisplay:10.37,2013-01-17 11:35:00,
2013-01-17 06:40:00,64.2,62.7,29.87,North,360,0.0,0.0,95,0.01,CLR,,0.14,WeatherDisplay:10.37,2013-01-17 11:40:00,
2013-01-17 06:45:00,64.2,62.7,29.87,SE,128,0.0,0.0,95,0.01,CLR,,0.14,WeatherDisplay:10.37,2013-01-17 11:45:00,
2013-01-17 06:50:00,64.1,62.6,29.87,SE,130,0.0,0.0,95,0.02,RA,,0.15,WeatherDisplay:10.37,2013-01-17 11:50:00,
2013-01-17 06:55:00,64.1,62.6,29.87,SE,128,0.0,0.0,95,0.02,RA,,0.15,WeatherDisplay:10.37,2013-01-17 11:55:00,
2013-01-17 07:00:00,64.1,62.6,29.87,SE,128,0.0,0.0,95,0.02,CLR,,0.15,WeatherDisplay:10.37,2013-01-17 12:00:00,
2013-01-17 07:05:00,64.0,62.5,29.88,SE,130,0.0,0.0,95,0.02,CLR,,0.15,WeatherDisplay:10.37,2013-01-17 12:05:00,
2013-01-17 07:10:00,64.0,62.5,29.87,North,360,3.5,3.5,95,0.03,RA,,0.16,WeatherDisplay:10.37,2013-01-17 12:10:00,
2013-01-17 07:15:00,64.0,62.5,29.86,North,360,0.0,0.0,95,0.04,RA,,0.17,WeatherDisplay:10.37,2013-01-17 12:15:00,
2013-01-17 07:20:00,64.0,62.5,29.86,ESE,119,0.0,0.0,95,0.03,RA,,0.17,WeatherDisplay:10.37,2013-01-17 12:20:00,
2013-01-17 07:25:00,63.9,62.4,29.86,ESE,117,0.0,0.0,95,0.03,,,0.17,WeatherDisplay:10.37,2013-01-17 12:25:00,
2013-01-17 07:30:00,63.9,62.4,29.86,North,360,0.0,0.0,95,0.03,CLR,,0.17,WeatherDisplay:10.37,2013-01-17 12:30:00,
2013-01-17 07:35:00,63.9,62.4,29.85,North,360,3.5,3.5,95,0.03,CLR,,0.17,WeatherDisplay:10.37,2013-01-17 12:35:00,
2013-01-17 07:40:00,63.9,62.4,29.84,North,360,6.9,6.9,95,0.03,CLR,,0.17,WeatherDisplay:10.37,2013-01-17 12:40:00,
2013-01-17 07:45:00,63.9,62.4,29.85,North,360,5.8,5.8,95,0.03,CLR,,0.17,WeatherDisplay:10.37,2013-01-17 12:45:00,
2013-01-17 07:50:00,63.9,62.4,29.85,ESE,110,2.3,2.3,95,0.02,CLR,,0.17,WeatherDisplay:10.37,2013-01-17 12:50:00,
2013-01-17 07:55:00,63.9,62.4,29.85,ESE,109,0.0,0.0,95,0.02,CLR,,0.17,WeatherDisplay:10.37,2013-01-17 12:55:00,
2013-01-17 08:00:00,63.9,62.4,29.85,ESE,117,0.0,0.7,95,0.02,CLR,,0.17,WeatherDisplay:10.37,2013-01-17 13:00:00,
2013-01-17 08:05:00,63.9,62.4,29.85,North,360,0.0,0.0,95,0.02,CLR,,0.17,WeatherDisplay:10.37,2013-01-17 13:05:00,
2013-01-17 08:10:00,64.0,62.5,29.85,North,360,0.0,0.0,95,0.01,CLR,,0.17,WeatherDisplay:10.37,2013-01-17 13:10:00,
2013-01-17 08:15:00,64.0,62.5,29.85,North,360,3.5,3.5,95,0.00,CLR,,0.17,WeatherDisplay:10.37,2013-01-17 13:15:00,
2013-01-17 08:20:00,64.0,62.5,29.85,North,360,3.0,3.0,95,0.00,CLR,,0.17,WeatherDisplay:10.37,2013-01-17 13:20:00,
2013-01-17 08:25:00,64.0,62.5,29.85,North,360,3.5,3.5,95,0.00,CLR,,0.17,WeatherDisplay:10.37,2013-01-17 13:25:00,
2013-01-17 08:30:00,64.0,62.5,29.85,North,360,5.8,5.8,95,0.00,CLR,,0.17,WeatherDisplay:10.37,2013-01-17 13:30:00,
2013-01-17 08:35:00,64.0,62.5,29.85,North,360,8.1,8.1,95,0.00,CLR,,0.17,WeatherDisplay:10.37,2013-01-17 13:35:00,
2013-01-17 08:40:00,64.0,62.5,29.85,North,360,9.2,9.2,95,0.00,CLR,,0.17,WeatherDisplay:10.37,2013-01-17 13:40:00,
2013-01-17 08:45:00,64.0,62.5,29.85,North,360,6.0,6.0,95,0.00,CLR,,0.17,WeatherDisplay:10.37,2013-01-17 13:45:00,
2013-01-17 08:50:00,64.0,62.5,29.85,North,360,0.0,0.0,95,0.00,CLR,,0.17,WeatherDisplay:10.37,2013-01-17 13:50:00,
2013-01-17 08:55:00,64.0,62.5,29.85,North,360,5.0,5.0,95,0.00,CLR,,0.17,WeatherDisplay:10.37,2013-01-17 13:55:00,
2013-01-17 09:00:00,64.1,62.6,29.85,North,360,6.0,6.0,95,0.00,CLR,,0.17,WeatherDisplay:10.37,2013-01-17 14:00:00,
2013-01-17 09:05:00,64.1,62.6,29.85,SE,124,4.6,4.6,95,0.00,CLR,,0.17,WeatherDisplay:10.37,2013-01-17 14:05:00,
2013-01-17 09:10:00,64.2,62.7,29.85,North,360,10.4,10.4,95,0.00,CLR,,0.17,WeatherDisplay:10.37,2013-01-17 14:10:00,
2013-01-17 09:15:00,64.3,62.8,29.84,North,360,0.0,0.0,95,0.00,CLR,,0.17,WeatherDisplay:10.37,2013-01-17 14:15:00,
2013-01-17 09:20:00,64.4,62.9,29.84,ESE,117,3.0,3.0,95,0.00,CLR,,0.17,WeatherDisplay:10.37,2013-01-17 14:20:00,
2013-01-17 09:25:00,64.4,62.9,29.83,North,360,5.0,5.0,95,0.00,CLR,,0.17,WeatherDisplay:10.37,2013-01-17 14:25:00,
2013-01-17 09:30:00,64.5,63.0,29.84,North,360,3.5,3.5,95,0.00,CLR,,0.17,WeatherDisplay:10.37,2013-01-17 14:30:00,
2013-01-17 09:35:00,64.7,63.2,29.84,North,360,3.5,3.5,95,0.00,CLR,,0.17,WeatherDisplay:10.37,2013-01-17 14:35:00,
2013-01-17 09:40:00,64.8,63.3,29.84,North,360,3.0,3.0,95,0.00,CLR,,0.17,WeatherDisplay:10.37,2013-01-17 14:40:00,
2013-01-17 09:45:00,64.8,63.3,29.84,North,2,0.0,3.0,95,0.00,CLR,,0.17,WeatherDisplay:10.37,2013-01-17 14:45:00,
2013-01-17 09:50:00,64.8,63.3,29.83,North,360,4.0,4.0,95,0.00,CLR,,0.17,WeatherDisplay:10.37,2013-01-17 14:50:00,
2013-01-17 09:55:00,64.9,63.4,29.83,NNE,23,2.0,5.0,95,0.00,CLR,,0.17,WeatherDisplay:10.37,2013-01-17 14:55:00,
2013-01-17 10:00:00,65.1,63.6,29.83,NNE,22,5.0,9.0,95,0.00,CLR,,0.17,WeatherDisplay:10.37,2013-01-17 15:00:00,
2013-01-17 10:05:00,65.1,63.7,29.82,North,7,3.0,7.0,95,0.00,CLR,,0.17,WeatherDisplay:10.37,2013-01-17 15:05:00,
2013-01-17 10:10:00,65.4,63.9,29.82,North,6,3.0,7.0,95,0.00,CLR,,0.17,WeatherDisplay:10.37,2013-01-17 15:10:00,
2013-01-17 10:15:00,65.5,64.0,29.82,North,6,5.0,9.0,95,0.00,CLR,,0.17,WeatherDisplay:10.37,2013-01-17 15:15:00,
2013-01-17 10:20:00,65.5,63.7,29.81,North,3,5.0,10.0,94,0.00,CLR,,0.17,WeatherDisplay:10.37,2013-01-17 15:20:00,
2013-01-17 10:25:00,65.7,63.9,29.81,North,3,6.0,9.0,94,0.00,CLR,,0.17,WeatherDisplay:10.37,2013-01-17 15:25:00,
2013-01-17 10:30:00,65.9,64.1,29.81,North,360,7.0,7.0,94,0.00,CLR,,0.17,WeatherDisplay:10.37,2013-01-17 15:30:00,
2013-01-17 10:35:00,65.9,64.1,29.81,North,360,2.0,2.1,94,0.00,CLR,,0.17,WeatherDisplay:10.37,2013-01-17 15:35:00,
2013-01-17 10:40:00,65.9,64.1,29.81,North,360,1.2,0.0,94,0.00,CLR,,0.17,WeatherDisplay:10.37,2013-01-17 15:40:00,
2013-01-17 10:45:00,66.1,64.3,29.80,North,360,1.0,3.0,94,0.00,CLR,,0.17,WeatherDisplay:10.37,2013-01-17 15:45:00,
2013-01-17 10:50:00,66.0,64.0,29.80,North,0,0.0,4.0,93,0.00,CLR,,0.17,WeatherDisplay:10.37,2013-01-17 15:50:00,
2013-01-17 10:55:00,66.2,64.1,29.79,NNE,13,1.0,7.0,93,0.00,CLR,,0.17,WeatherDisplay:10.37,2013-01-17 15:55:00,
2013-01-17 11:00:00,66.7,64.6,29.79,North,11,3.0,7.0,93,0.00,CLR,,0.17,WeatherDisplay:10.37,2013-01-17 16:00:00,
2013-01-17 11:05:00,67.3,65.2,29.78,NNE,26,3.0,7.0,93,0.00,CLR,,0.17,WeatherDisplay:10.37,2013-01-17 16:05:00,
2013-01-17 11:10:00,67.9,65.4,29.77,NNE,20,3.0,9.0,92,0.00,CLR,,0.17,WeatherDisplay:10.37,2013-01-17 16:10:00,
2013-01-17 11:15:00,68.3,65.3,29.77,North,5,3.0,8.0,90,0.00,CLR,,0.17,WeatherDisplay:10.37,2013-01-17 16:15:00,
2013-01-17 11:20:00,69.0,65.9,29.77,North,360,3.5,3.5,90,0.00,CLR,,0.17,WeatherDisplay:10.37,2013-01-17 16:20:00,
2013-01-17 11:25:00,69.0,65.3,29.77,North,360,11.5,11.5,88,0.00,CLR,,0.17,WeatherDisplay:10.37,2013-01-17 16:25:00,
2013-01-17 11:30:00,68.6,64.6,29.76,North,2,7.0,12.0,87,0.00,CLR,,0.17,WeatherDisplay:10.37,2013-01-17 16:30:00,
2013-01-17 11:35:00,68.7,64.7,29.76,North,3,3.0,6.0,87,0.00,CLR,,0.17,WeatherDisplay:10.37,2013-01-17 16:35:00,
2013-01-17 11:40:00,68.5,64.1,29.76,North,3,3.0,7.0,86,0.00,CLR,,0.17,WeatherDisplay:10.37,2013-01-17 16:40:00,
2013-01-17 11:45:00,68.4,64.0,29.76,North,7,2.0,6.0,86,0.00,CLR,,0.17,WeatherDisplay:10.37,2013-01-17 16:45:00,
2013-01-17 11:50:00,68.2,64.2,29.75,NNE,12,0.0,3.0,87,0.00,CLR,,0.17,WeatherDisplay:10.37,2013-01-17 16:50:00,
2013-01-17 11:55:00,68.1,64.1,29.75,North,4,3.0,9.0,87,0.00,CLR,,0.17,WeatherDisplay:10.37,2013-01-17 16:55:00,
2013-01-17 12:00:00,68.1,64.1,29.74,North,4,2.0,9.0,87,0.00,CLR,,0.17,WeatherDisplay:10.37,2013-01-17 17:00:00,
2013-01-17 12:05:00,68.2,64.2,29.73,North,360,3.5,3.5,87,0.00,CLR,,0.17,WeatherDisplay:10.37,2013-01-17 17:05:00,
2013-01-17 12:10:00,68.3,63.9,29.73,North,360,4.6,4.6,86,0.00,CLR,,0.17,WeatherDisplay:10.37,2013-01-17 17:10:00,
2013-01-17 12:15:00,68.3,63.9,29.73,North,360,3.5,3.5,86,0.00,CLR,,0.17,WeatherDisplay:10.37,2013-01-17 17:15:00,
2013-01-17 12:20:00,68.3,63.9,29.72,North,360,5.8,5.8,86,0.00,CLR,,0.17,WeatherDisplay:10.37,2013-01-17 17:20:00,
2013-01-17 12:25:00,68.3,63.9,29.72,North,11,5.0,10.0,86,0.00,CLR,,0.17,WeatherDisplay:10.37,2013-01-17 17:25:00,
2013-01-17 12:30:00,68.2,63.9,29.72,NNE,23,2.0,7.0,86,0.00,CLR,,0.17,WeatherDisplay:10.37,2013-01-17 17:30:00,
2013-01-17 12:35:00,68.0,63.9,29.72,NNE,20,6.0,16.0,87,0.00,CLR,,0.17,WeatherDisplay:10.37,2013-01-17 17:35:00,
2013-01-17 12:40:00,67.7,63.7,29.72,North,0,0.0,5.0,87,0.00,CLR,,0.17,WeatherDisplay:10.37,2013-01-17 17:40:00,
2013-01-17 12:45:00,67.1,63.1,29.73,West,274,8.0,15.0,87,0.00,RA,,0.18,WeatherDisplay:10.37,2013-01-17 17:45:00,
2013-01-17 12:50:00,63.0,58.4,29.73,WSW,255,7.0,18.0,85,0.00,RA,,0.18,WeatherDisplay:10.37,2013-01-17 17:50:00,
2013-01-17 12:55:00,60.7,56.8,29.74,WSW,238,5.0,20.0,87,0.00,,,0.18,WeatherDisplay:10.37,2013-01-17 17:55:00,
2013-01-17 13:00:00,59.6,56.4,29.74,SW,229,5.8,5.8,89,0.01,CLR,,0.19,WeatherDisplay:10.37,2013-01-17 18:00:00,
2013-01-17 13:05:00,59.0,56.1,29.74,SW,229,5.8,5.8,90,0.03,RA,,0.20,WeatherDisplay:10.37,2013-01-17 18:05:00,
2013-01-17 13:10:00,58.7,55.8,29.74,SW,218,5.8,5.8,90,0.03,RA,,0.20,WeatherDisplay:10.37,2013-01-17 18:10:00,
2013-01-17 13:15:00,58.3,55.4,29.73,SW,217,18.0,18.0,90,0.03,,,0.20,WeatherDisplay:10.37,2013-01-17 18:15:00,
2013-01-17 13:20:00,58.0,55.1,29.73,WSW,242,4.6,4.6,90,0.03,CLR,,0.20,WeatherDisplay:10.37,2013-01-17 18:20:00,
2013-01-17 13:25:00,57.9,55.2,29.73,SW,220,1.0,9.0,91,0.00,CLR,,0.20,WeatherDisplay:10.37,2013-01-17 18:25:00,
2013-01-17 13:30:00,57.6,55.0,29.73,SW,221,0.0,15.0,91,0.00,CLR,,0.20,WeatherDisplay:10.37,2013-01-17 18:30:00,
2013-01-17 13:36:00,57.4,54.8,29.74,SW,234,3.5,3.5,91,0.04,RA,,0.21,WeatherDisplay:10.37,2013-01-17 18:36:00,
2013-01-17 13:41:00,57.2,54.6,29.74,SSW,213,9.2,9.2,91,0.04,RA,,0.21,WeatherDisplay:10.37,2013-01-17 18:41:00,
2013-01-17 13:46:00,56.6,54.0,29.74,SW,226,11.5,11.5,91,0.03,,,0.21,WeatherDisplay:10.37,2013-01-17 18:46:00,
2013-01-17 13:51:00,55.8,52.9,29.74,SW,234,3.5,3.5,90,0.03,CLR,,0.21,WeatherDisplay:10.37,2013-01-17 18:51:00,
2013-01-17 13:56:00,55.2,52.0,29.75,WSW,245,11.5,11.5,89,0.03,CLR,,0.21,WeatherDisplay:10.37,2013-01-17 18:56:00,
2013-01-17 14:01:00,54.8,51.9,29.75,SW,229,4.6,4.6,90,0.02,CLR,,0.21,WeatherDisplay:10.37,2013-01-17 19:01:00,
2013-01-17 14:06:00,54.6,51.7,29.75,SW,226,6.9,6.9,90,0.01,CLR,,0.21,WeatherDisplay:10.37,2013-01-17 19:06:00,
2013-01-17 14:11:00,54.4,51.5,29.76,WNW,290,3.5,3.5,90,0.01,CLR,,0.21,WeatherDisplay:10.37,2013-01-17 19:11:00,
2013-01-17 14:16:00,54.2,51.6,29.75,SW,225,3.0,3.0,91,0.03,RA,,0.23,WeatherDisplay:10.37,2013-01-17 19:16:00,
2013-01-17 14:21:00,53.8,51.2,29.76,SW,225,5.8,5.8,91,0.06,RA,,0.26,WeatherDisplay:10.37,2013-01-17 19:21:00,
2013-01-17 14:26:00,53.1,50.5,29.77,WSW,248,10.4,10.4,91,0.08,RA,,0.28,WeatherDisplay:10.37,2013-01-17 19:26:00,
2013-01-17 14:31:00,52.7,50.1,29.77,WSW,245,10.4,10.4,91,0.09,RA,,0.29,WeatherDisplay:10.37,2013-01-17 19:31:00,
2013-01-17 14:36:00,52.0,49.5,29.77,North,360,3.5,3.5,91,0.09,RA,,0.30,WeatherDisplay:10.37,2013-01-17 19:36:00,
2013-01-17 14:41:00,51.3,48.8,29.77,North,360,4.6,4.6,91,0.10,RA,,0.31,WeatherDisplay:10.37,2013-01-17 19:41:00,
2013-01-17 14:46:00,50.3,47.5,29.77,WSW,239,4.6,4.6,90,0.10,RA,,0.31,WeatherDisplay:10.37,2013-01-17 19:46:00,
2013-01-17 14:51:00,49.6,46.8,29.77,SW,215,13.8,13.8,90,0.11,RA,,0.32,WeatherDisplay:10.37,2013-01-17 19:51:00,
2013-01-17 14:56:00,49.5,46.7,29.78,WSW,255,6.0,6.0,90,0.11,RA,,0.32,WeatherDisplay:10.37,2013-01-17 19:56:00,
2013-01-17 15:01:00,49.4,46.9,29.78,WSW,237,1.0,1.0,91,0.12,RA,,0.33,WeatherDisplay:10.37,2013-01-17 20:01:00,
2013-01-17 15:06:00,49.2,46.7,29.78,WSW,242,3.5,3.5,91,0.13,RA,,0.34,WeatherDisplay:10.37,2013-01-17 20:06:00,
2013-01-17 15:11:00,49.2,46.7,29.79,SW,232,5.8,5.8,91,0.14,RA,,0.35,WeatherDisplay:10.37,2013-01-17 20:11:00,
2013-01-17 15:16:00,49.1,46.6,29.78,SW,229,2.3,0.0,91,0.13,RA,,0.36,WeatherDisplay:10.37,2013-01-17 20:16:00,
2013-01-17 15:21:00,48.9,46.4,29.77,SW,229,1.0,1.0,91,0.11,RA,,0.37,WeatherDisplay:10.37,2013-01-17 20:21:00,
2013-01-17 15:26:00,48.8,46.3,29.78,SW,220,6.0,6.0,91,0.09,RA,,0.37,WeatherDisplay:10.37,2013-01-17 20:26:00,
2013-01-17 15:31:00,49.0,46.5,29.78,SW,218,10.4,10.4,91,0.08,CLR,,0.37,WeatherDisplay:10.37,2013-01-17 20:31:00,
2013-01-17 15:36:00,49.6,47.1,29.78,SW,233,4.6,4.6,91,0.07,CLR,,0.37,WeatherDisplay:10.37,2013-01-17 20:36:00,
2013-01-17 15:41:00,49.5,46.7,29.78,SW,217,3.5,3.5,90,0.06,CLR,,0.37,WeatherDisplay:10.37,2013-01-17 20:41:00,
2013-01-17 15:46:00,49.4,46.3,29.79,SW,236,0.0,0.0,89,0.06,CLR,,0.37,WeatherDisplay:10.37,2013-01-17 20:46:00,
2013-01-17 15:51:00,49.1,46.0,29.79,SSW,213,0.0,0.0,89,0.05,CLR,,0.37,WeatherDisplay:10.37,2013-01-17 20:51:00,
2013-01-17 15:56:00,48.9,45.8,29.79,SW,229,3.5,3.5,89,0.05,CLR,,0.37,WeatherDisplay:10.37,2013-01-17 20:56:00,
2013-01-17 16:01:00,48.6,45.2,29.79,WSW,237,4.6,4.6,88,0.04,CLR,,0.37,WeatherDisplay:10.37,2013-01-17 21:01:00,
2013-01-17 16:06:00,48.7,45.3,29.79,SW,236,4.6,4.6,88,0.03,CLR,,0.37,WeatherDisplay:10.37,2013-01-17 21:06:00,
2013-01-17 16:11:00,48.9,45.2,29.80,WSW,238,9.2,9.2,87,0.02,CLR,,0.37,WeatherDisplay:10.37,2013-01-17 21:11:00,
2013-01-17 16:16:00,49.1,45.1,29.80,WNW,288,3.5,3.5,86,0.01,CLR,,0.37,WeatherDisplay:10.37,2013-01-17 21:16:00,
2013-01-17 16:21:00,48.9,44.0,29.81,SW,217,5.8,5.8,83,0.00,CLR,,0.37,WeatherDisplay:10.37,2013-01-17 21:21:00,
2013-01-17 16:26:00,48.7,43.5,29.81,SW,236,4.6,4.6,82,0.00,CLR,,0.37,WeatherDisplay:10.37,2013-01-17 21:26:00,
2013-01-17 16:31:00,48.6,42.7,29.81,West,261,6.9,6.9,80,0.00,CLR,,0.37,WeatherDisplay:10.37,2013-01-17 21:31:00,
2013-01-17 16:36:00,48.6,42.4,29.81,SW,220,11.5,11.5,79,0.00,CLR,,0.37,WeatherDisplay:10.37,2013-01-17 21:36:00,
2013-01-17 16:41:00,48.4,41.5,29.82,South,191,9.2,9.2,77,0.00,CLR,,0.37,WeatherDisplay:10.37,2013-01-17 21:41:00,
2013-01-17 16:46:00,48.2,42.6,29.82,WSW,250,6.9,6.9,81,0.00,CLR,,0.37,WeatherDisplay:10.37,2013-01-17 21:46:00,
2013-01-17 16:51:00,48.2,41.3,29.82,WSW,252,1.2,1.2,77,0.00,CLR,,0.37,WeatherDisplay:10.37,2013-01-17 21:51:00,
2013-01-17 16:56:00,48.1,41.2,29.82,SW,232,5.8,5.8,77,0.00,CLR,,0.37,WeatherDisplay:10.37,2013-01-17 21:56:00,
2013-01-17 17:01:00,48.1,41.2,29.83,SW,221,3.5,3.5,77,0.00,CLR,,0.37,WeatherDisplay:10.37,2013-01-17 22:01:00,
2013-01-17 17:06:00,48.0,40.8,29.84,SW,229,16.1,16.1,76,0.00,CLR,,0.37,WeatherDisplay:10.37,2013-01-17 22:06:00,
2013-01-17 17:11:00,48.0,41.1,29.83,WNW,290,2.3,2.3,77,0.00,CLR,,0.37,WeatherDisplay:10.37,2013-01-17 22:11:00,
2013-01-17 17:16:00,48.1,40.9,29.83,SW,235,9.0,9.0,76,0.00,CLR,,0.37,WeatherDisplay:10.37,2013-01-17 22:16:00,
2013-01-17 17:21:00,47.9,40.0,29.84,SW,225,2.3,2.3,74,0.00,CLR,,0.37,WeatherDisplay:10.37,2013-01-17 22:21:00,
2013-01-17 17:26:00,47.6,39.7,29.84,WSW,246,3.5,3.5,74,0.00,CLR,,0.37,WeatherDisplay:10.37,2013-01-17 22:26:00,
2013-01-17 17:31:00,47.2,39.7,29.85,West,267,6.0,6.0,75,0.00,CLR,,0.37,WeatherDisplay:10.37,2013-01-17 22:31:00,
2013-01-17 17:36:00,46.9,39.7,29.85,WSW,246,2.3,2.3,76,0.00,CLR,,0.37,WeatherDisplay:10.37,2013-01-17 22:36:00,
2013-01-17 17:41:00,46.6,39.8,29.86,South,187,0.0,0.0,77,0.00,CLR,,0.37,WeatherDisplay:10.37,2013-01-17 22:41:00,
2013-01-17 17:46:00,46.3,39.5,29.85,SW,215,3.5,3.5,77,0.00,CLR,,0.37,WeatherDisplay:10.37,2013-01-17 22:46:00,
2013-01-17 17:51:00,46.2,39.4,29.86,WNW,284,0.0,0.0,77,0.00,CLR,,0.37,WeatherDisplay:10.37,2013-01-17 22:51:00,
2013-01-17 17:56:00,46.0,39.5,29.86,WSW,247,6.9,6.9,78,0.00,CLR,,0.37,WeatherDisplay:10.37,2013-01-17 22:56:00,
2013-01-17 18:01:00,45.9,39.4,29.87,NNW,329,3.5,3.5,78,0.00,CLR,,0.37,WeatherDisplay:10.37,2013-01-17 23:01:00,
2013-01-17 18:06:00,45.9,39.4,29.88,West,271,2.3,2.3,78,0.00,CLR,,0.37,WeatherDisplay:10.37,2013-01-17 23:06:00,
2013-01-17 18:11:00,46.0,39.5,29.88,SW,227,3.5,3.5,78,0.00,CLR,,0.37,WeatherDisplay:10.37,2013-01-17 23:11:00,
2013-01-17 18:16:00,45.9,39.1,29.89,West,281,4.6,4.6,77,0.00,CLR,,0.37,WeatherDisplay:10.37,2013-01-17 23:16:00,
2013-01-17 18:21:00,45.9,39.1,29.89,West,259,11.5,11.5,77,0.00,CLR,,0.37,WeatherDisplay:10.37,2013-01-17 23:21:00,
2013-01-17 18:26:00,45.8,39.0,29.90,West,271,3.5,3.5,77,0.00,CLR,,0.37,WeatherDisplay:10.37,2013-01-17 23:26:00,
2013-01-17 18:31:00,45.6,38.8,29.90,SW,232,4.6,6.0,77,0.00,CLR,,0.37,WeatherDisplay:10.37,2013-01-17 23:31:00,
2013-01-17 18:36:00,45.4,37.9,29.90,WSW,237,5.8,5.8,75,0.00,CLR,,0.37,WeatherDisplay:10.37,2013-01-17 23:36:00,
2013-01-17 18:41:00,45.1,37.6,29.90,SW,230,6.9,6.9,75,0.00,CLR,,0.37,WeatherDisplay:10.37,2013-01-17 23:41:00,
2013-01-17 18:46:00,45.0,37.6,29.91,WSW,237,12.7,12.7,75,0.00,CLR,,0.37,WeatherDisplay:10.37,2013-01-17 23:46:00,
2013-01-17 18:51:00,45.0,37.9,29.92,WNW,291,6.0,6.0,76,0.00,CLR,,0.37,WeatherDisplay:10.37,2013-01-17 23:51:00,
2013-01-17 18:56:00,45.0,37.6,29.92,SSW,207,6.9,6.9,75,0.00,CLR,,0.37,WeatherDisplay:10.37,2013-01-17 23:56:00,
2013-01-17 19:01:00,44.9,37.8,29.93,NW,313,3.5,3.5,76,0.00,CLR,,0.37,WeatherDisplay:10.37,2013-01-18 00:01:00,
2013-01-17 19:06:00,44.9,37.5,29.94,SW,227,9.2,9.2,75,0.00,CLR,,0.37,WeatherDisplay:10.37,2013-01-18 00:06:00,
2013-01-17 19:11:00,44.9,37.5,29.95,SW,226,5.8,5.8,75,0.00,CLR,,0.37,WeatherDisplay:10.37,2013-01-18 00:11:00,
2013-01-17 19:16:00,44.8,37.4,29.95,SW,236,11.5,11.5,75,0.00,CLR,,0.37,WeatherDisplay:10.37,2013-01-18 00:16:00,
2013-01-17 19:21:00,44.7,37.3,29.97,West,273,11.5,11.5,75,0.00,CLR,,0.37,WeatherDisplay:10.37,2013-01-18 00:21:00,
2013-01-17 19:26:00,44.6,37.2,29.97,WNW,284,12.7,12.7,75,0.00,CLR,,0.37,WeatherDisplay:10.37,2013-01-18 00:26:00,
2013-01-17 19:31:00,44.5,37.4,29.97,WNW,290,4.6,4.6,76,0.00,CLR,,0.37,WeatherDisplay:10.37,2013-01-18 00:31:00,
2013-01-17 19:36:00,44.3,37.2,29.97,West,280,13.8,13.8,76,0.00,CLR,,0.37,WeatherDisplay:10.37,2013-01-18 00:36:00,
2013-01-17 19:41:00,44.2,37.1,29.98,WNW,287,9.2,9.2,76,0.00,CLR,,0.37,WeatherDisplay:10.37,2013-01-18 00:41:00,
2013-01-17 19:46:00,44.2,37.1,29.99,SSW,203,11.5,11.5,76,0.00,CLR,,0.37,WeatherDisplay:10.37,2013-01-18 00:46:00,
2013-01-17 19:51:00,44.1,37.0,29.99,West,276,4.6,4.6,76,0.00,CLR,,0.37,WeatherDisplay:10.37,2013-01-18 00:51:00,
2013-01-17 19:56:00,44.0,36.9,30.00,NW,316,10.4,10.4,76,0.00,CLR,,0.37,WeatherDisplay:10.37,2013-01-18 00:56:00,
2013-01-17 20:01:00,43.9,37.2,30.00,NW,311,4.6,4.6,77,0.00,CLR,,0.37,WeatherDisplay:10.37,2013-01-18 01:01:00,
2013-01-17 20:06:00,43.9,37.2,30.01,NW,311,5.8,5.8,77,0.00,CLR,,0.37,WeatherDisplay:10.37,2013-01-18 01:06:00,
2013-01-17 20:11:00,43.8,37.1,30.01,WSW,244,6.9,6.9,77,0.00,CLR,,0.37,WeatherDisplay:10.37,2013-01-18 01:11:00,
2013-01-17 20:16:00,43.7,37.3,30.01,West,264,10.4,10.4,78,0.00,CLR,,0.37,WeatherDisplay:10.37,2013-01-18 01:16:00,
2013-01-17 20:21:00,43.6,37.2,30.02,WSW,237,3.5,3.5,78,0.00,CLR,,0.37,WeatherDisplay:10.37,2013-01-18 01:21:00,
2013-01-17 20:26:00,43.6,37.5,30.02,WNW,288,3.5,3.5,79,0.00,CLR,,0.37,WeatherDisplay:10.37,2013-01-18 01:26:00,
2013-01-17 20:31:00,43.5,37.4,30.03,SSW,202,3.5,3.5,79,0.00,CLR,,0.37,WeatherDisplay:10.37,2013-01-18 01:31:00,
2013-01-17 20:36:00,43.5,37.4,30.03,West,281,6.9,6.9,79,0.00,CLR,,0.37,WeatherDisplay:10.37,2013-01-18 01:36:00,
2013-01-17 20:41:00,43.5,37.4,30.04,SW,221,2.3,2.3,79,0.00,CLR,,0.37,WeatherDisplay:10.37,2013-01-18 01:41:00,
2013-01-17 20:46:00,43.4,37.3,30.05,West,265,11.5,11.5,79,0.00,CLR,,0.37,WeatherDisplay:10.37,2013-01-18 01:46:00,
2013-01-17 20:51:00,43.4,37.3,30.05,SW,215,11.5,11.5,79,0.00,CLR,,0.37,WeatherDisplay:10.37,2013-01-18 01:51:00,
2013-01-17 20:56:00,43.3,37.2,30.05,WNW,286,3.5,3.5,79,0.00,CLR,,0.37,WeatherDisplay:10.37,2013-01-18 01:56:00,
2013-01-17 21:01:00,43.3,37.2,30.05,NNW,329,4.6,4.6,79,0.00,CLR,,0.37,WeatherDisplay:10.37,2013-01-18 02:01:00,
2013-01-17 21:06:00,43.3,37.5,30.06,WNW,288,3.5,3.5,80,0.00,CLR,,0.37,WeatherDisplay:10.37,2013-01-18 02:06:00,
2013-01-17 21:11:00,43.2,37.4,30.06,NW,314,3.5,3.5,80,0.00,CLR,,0.37,WeatherDisplay:10.37,2013-01-18 02:11:00,
2013-01-17 21:16:00,43.2,37.8,30.06,SSW,192,5.0,5.0,81,0.00,CLR,,0.37,WeatherDisplay:10.37,2013-01-18 02:16:00,
2013-01-17 21:21:00,43.2,37.8,30.06,NW,306,5.8,5.8,81,0.00,CLR,,0.37,WeatherDisplay:10.37,2013-01-18 02:21:00,
2013-01-17 21:26:00,43.2,37.8,30.07,NW,316,5.8,5.8,81,0.00,CLR,,0.37,WeatherDisplay:10.37,2013-01-18 02:26:00,
2013-01-17 21:31:00,43.2,37.8,30.06,SSW,205,6.9,6.9,81,0.00,CLR,,0.37,WeatherDisplay:10.37,2013-01-18 02:31:00,
2013-01-17 21:36:00,43.2,38.1,30.06,NW,319,6.9,6.9,82,0.00,CLR,,0.37,WeatherDisplay:10.37,2013-01-18 02:36:00,
2013-01-17 21:41:00,43.3,38.2,30.06,NNW,342,3.5,3.5,82,0.00,CLR,,0.37,WeatherDisplay:10.37,2013-01-18 02:41:00,
2013-01-17 21:46:00,43.3,38.2,30.06,NW,313,4.6,4.6,82,0.00,CLR,,0.37,WeatherDisplay:10.37,2013-01-18 02:46:00,
2013-01-17 21:51:00,43.3,38.5,30.07,NW,305,9.2,9.2,83,0.00,CLR,,0.37,WeatherDisplay:10.37,2013-01-18 02:51:00,
2013-01-17 21:57:00,43.3,38.5,30.07,NW,316,8.1,8.1,83,0.00,CLR,,0.37,WeatherDisplay:10.37,2013-01-18 02:57:00,
2013-01-17 22:02:00,43.4,38.6,30.07,NW,321,11.5,11.5,83,0.00,CLR,,0.37,WeatherDisplay:10.37,2013-01-18 03:02:00,
2013-01-17 22:07:00,43.5,38.7,30.07,WNW,283,1.2,1.2,83,0.00,CLR,,0.37,WeatherDisplay:10.37,2013-01-18 03:07:00,
2013-01-17 22:12:00,43.4,38.6,30.07,NW,305,4.6,4.6,83,0.00,CLR,,0.37,WeatherDisplay:10.37,2013-01-18 03:12:00,
2013-01-17 22:17:00,43.2,38.1,30.07,NW,312,11.5,11.5,82,0.00,CLR,,0.37,WeatherDisplay:10.37,2013-01-18 03:17:00,
2013-01-17 22:22:00,42.9,38.1,30.08,NW,310,14.0,14.0,83,0.00,CLR,,0.37,WeatherDisplay:10.37,2013-01-18 03:22:00,
2013-01-17 22:27:00,42.8,38.0,30.08,NW,306,3.5,3.5,83,0.00,CLR,,0.37,WeatherDisplay:10.37,2013-01-18 03:27:00,
2013-01-17 22:32:00,42.6,37.8,30.08,NNE,12,10.4,10.4,83,0.00,CLR,,0.37,WeatherDisplay:10.37,2013-01-18 03:32:00,
2013-01-17 22:37:00,42.5,37.7,30.09,WNW,294,9.2,9.2,83,0.00,CLR,,0.37,WeatherDisplay:10.37,2013-01-18 03:37:00,
2013-01-17 22:42:00,42.5,38.0,30.10,NW,315,11.5,11.5,84,0.00,CLR,,0.37,WeatherDisplay:10.37,2013-01-18 03:42:00,
2013-01-17 22:47:00,42.5,38.0,30.11,West,272,5.8,5.8,84,0.00,CLR,,0.37,WeatherDisplay:10.37,2013-01-18 03:47:00,
2013-01-17 22:52:00,42.4,37.9,30.11,NW,314,11.5,11.5,84,0.00,CLR,,0.37,WeatherDisplay:10.37,2013-01-18 03:52:00,
2013-01-17 22:57:00,42.5,38.0,30.12,NE,44,4.6,4.6,84,0.00,CLR,,0.37,WeatherDisplay:10.37,2013-01-18 03:57:00,
2013-01-17 23:02:00,42.4,37.9,30.12,WNW,303,4.6,4.6,84,0.00,CLR,,0.37,WeatherDisplay:10.37,2013-01-18 04:02:00,
2013-01-17 23:07:00,42.4,37.9,30.13,ENE,74,9.2,9.2,84,0.00,CLR,,0.37,WeatherDisplay:10.37,2013-01-18 04:07:00,
2013-01-17 23:12:00,42.5,38.0,30.14,NNW,341,4.0,4.0,84,0.00,CLR,,0.37,WeatherDisplay:10.37,2013-01-18 04:12:00,
2013-01-17 23:17:00,42.5,38.0,30.15,North,5,4.6,4.6,84,0.00,CLR,,0.37,WeatherDisplay:10.37,2013-01-18 04:17:00,
2013-01-17 23:22:00,42.6,38.1,30.15,North,355,3.5,3.5,84,0.00,CLR,,0.37,WeatherDisplay:10.37,2013-01-18 04:22:00,
2013-01-17 23:27:00,42.7,38.2,30.16,NNW,342,6.9,6.9,84,0.00,CLR,,0.37,WeatherDisplay:10.37,2013-01-18 04:27:00,
2013-01-17 23:32:00,42.7,38.2,30.17,NNW,341,10.4,10.4,84,0.00,CLR,,0.37,WeatherDisplay:10.37,2013-01-18 04:32:00,
2013-01-17 23:37:00,42.6,38.1,30.17,NW,326,5.8,5.8,84,0.00,CLR,,0.37,WeatherDisplay:10.37,2013-01-18 04:37:00,
2013-01-17 23:42:00,42.5,38.0,30.17,NW,304,4.6,4.6,84,0.00,CLR,,0.37,WeatherDisplay:10.37,2013-01-18 04:42:00,
2013-01-17 23:47:00,42.4,37.9,30.17,NW,315,4.6,4.6,84,0.00,CLR,,0.37,WeatherDisplay:10.37,2013-01-18 04:47:00,
2013-01-17 23:52:00,42.3,38.1,30.17,NNW,330,3.5,3.5,85,0.00,CLR,,0.37,WeatherDisplay:10.37,2013-01-18 04:52:00,
2013-01-17 23:57:00,42.2,38.0,30.17,North,355,3.5,3.5,85,0.00,CLR,,0.37,WeatherDisplay:10.37,2013-01-18 04:57:00,